This is the latest recevied weather packets stored in our database for station/object SQ9MHX-13. If no packets are shown the sender has not sent any weather packets the latest 10 day(s).
| Time | Temp. | Humidity | Pressure | Rain* | Wind** | Luminosity | Snow |
|---|---|---|---|---|---|---|---|
| 1777524949 | 3.89° C | 59% | 997 hPa | - | 0 m/s | - | - |
| 1777524651 | 2.78° C | 63% | 997.8 hPa | - | 0 m/s | - | - |
| 1777524353 | 3.89° C | 60% | 998.1 hPa | - | 0 m/s | - | - |
| 1777524055 | 2.22° C | 64% | 998.6 hPa | - | 0 m/s | - | - |
| 1777523756 | 2.78° C | 61% | 999.3 hPa | - | 0 m/s | - | - |
| 1777523459 | 2.22° C | 64% | 1000 hPa | - | 0 m/s | - | - |
| 1777523160 | 1.11° C | 69% | 1000.7 hPa | - | 0 m/s | - | - |
| 1777522565 | 1.11° C | 69% | 1001.2 hPa | - | 0 m/s | - | - |
| 1777522267 | 0° C | 70% | 1001.7 hPa | - | 0 m/s | - | - |
| 1777521969 | 1.11° C | 71% | 1002.1 hPa | - | 0 m/s | - | - |
| 1777521745 | 0° C | 71% | 1002.9 hPa | - | 0 m/s | - | - |
| 1777521671 | 0° C | 71% | 1002.9 hPa | - | 0 m/s | - | - |
| 1777521373 | 0° C | 75% | 1003.6 hPa | - | 0 m/s | - | - |
| 1777521075 | 0° C | 76% | 1004.2 hPa | - | 0 m/s | - | - |
| 1777520778 | -1.11° C | 79% | 1004.7 hPa | - | 0 m/s | - | - |
| 1777520480 | -1.11° C | 80% | 1005.1 hPa | - | 0 m/s | - | - |
| 1777520182 | -2.22° C | 82% | 1005.5 hPa | - | 0 m/s | - | - |
| 1777519884 | -2.22° C | 82% | 1005.7 hPa | - | 0 m/s | - | - |
| 1777519587 | -2.22° C | 85% | 1006.7 hPa | - | 0 m/s | - | - |
| 1777519289 | -2.78° C | 87% | 1007.8 hPa | - | 0 m/s | - | - |
| 1777518991 | -2.78° C | 87% | 1007.8 hPa | - | 0 m/s | - | - |
| 1777518693 | -2.78° C | 85% | 1007.1 hPa | - | 0 m/s | - | - |
| 1777518396 | -2.78° C | 85% | 1007.2 hPa | - | 0 m/s | - | - |
| 1777518098 | -2.78° C | 86% | 1007.8 hPa | - | 0 m/s | - | - |
| 1777517802 | -2.78° C | 86% | 1007.6 hPa | - | 0 m/s | - | - |
* Rain since midnight (hover to see other rain measurements)
** Current wind speed in m/s (hover to see current wind gust speed)